createdAt,value
2022-08-17T00:00:43.402Z,20.78
2022-08-17T00:03:17.185Z,20.78
2022-08-17T00:05:50.970Z,20.78
2022-08-17T00:08:24.130Z,20.78
2022-08-17T00:10:54.390Z,20.79
2022-08-17T00:13:26.545Z,20.79
2022-08-17T00:16:02.039Z,20.79
2022-08-17T00:19:06.483Z,20.80
2022-08-17T00:21:23.760Z,20.82
2022-08-17T00:23:52.320Z,20.85
2022-08-17T00:26:43.503Z,20.85
2022-08-17T00:29:09.855Z,20.86
2022-08-17T00:31:49.253Z,20.85
2022-08-17T00:34:17.873Z,20.86
2022-08-17T00:36:46.356Z,20.88
2022-08-17T00:39:14.546Z,20.90
2022-08-17T00:41:42.940Z,20.90
2022-08-17T00:44:12.574Z,20.88
2022-08-17T00:46:44.958Z,20.84
2022-08-17T00:49:14.974Z,20.79
2022-08-17T00:51:48.790Z,20.75
2022-08-17T00:54:31.726Z,20.73
2022-08-17T00:57:10.146Z,20.70
2022-08-17T00:59:44.570Z,20.65
2022-08-17T01:02:15.848Z,20.63
2022-08-17T01:04:47.246Z,20.60
2022-08-17T01:07:17.325Z,20.56
2022-08-17T01:09:45.351Z,20.53
2022-08-17T01:12:13.720Z,20.52
2022-08-17T01:14:42.406Z,20.52
2022-08-17T01:17:10.886Z,20.52
2022-08-17T01:19:42.425Z,20.51
2022-08-17T01:22:15.059Z,20.50
2022-08-17T01:24:48.108Z,20.51
2022-08-17T01:27:18.615Z,20.52
2022-08-17T01:29:54.179Z,20.53
2022-08-17T01:32:22.142Z,20.53
2022-08-17T01:34:50.976Z,20.52
2022-08-17T01:37:21.816Z,20.52
2022-08-17T01:39:55.393Z,20.47
2022-08-17T01:42:49.331Z,20.45
2022-08-17T01:45:30.638Z,20.42
2022-08-17T01:47:58.720Z,20.37
2022-08-17T01:50:32.442Z,20.32
2022-08-17T01:53:04.630Z,20.26
2022-08-17T01:55:41.253Z,20.22
2022-08-17T01:58:10.438Z,20.19
2022-08-17T02:00:58.189Z,20.16
2022-08-17T02:03:34.705Z,20.11
2022-08-17T02:06:05.178Z,20.07
2022-08-17T02:08:38.969Z,20.04
2022-08-17T02:11:14.836Z,20.03
2022-08-17T02:13:45.058Z,20.01
2022-08-17T02:16:13.885Z,19.97
2022-08-17T02:18:42.528Z,19.94
2022-08-17T02:21:11.216Z,19.93
2022-08-17T02:23:47.992Z,19.92
2022-08-17T02:26:26.102Z,19.92
2022-08-17T02:28:55.155Z,19.96
2022-08-17T02:31:23.233Z,20.01
2022-08-17T02:34:00.481Z,20.04
2022-08-17T02:36:35.097Z,20.07
2022-08-17T02:39:06.005Z,20.10
2022-08-17T02:41:34.549Z,20.10
2022-08-17T02:44:02.933Z,20.08
2022-08-17T02:46:31.715Z,20.07
2022-08-17T02:49:00.507Z,20.06
2022-08-17T02:51:28.691Z,20.04
2022-08-17T02:54:35.840Z,20.02
2022-08-17T02:56:45.196Z,20.00
2022-08-17T02:59:13.503Z,19.99
2022-08-17T03:01:41.808Z,19.98
2022-08-17T03:04:09.941Z,19.97
2022-08-17T03:06:38.095Z,19.97
2022-08-17T03:09:06.369Z,19.97
2022-08-17T03:11:35.258Z,19.97
2022-08-17T03:14:03.231Z,19.98
2022-08-17T03:16:31.149Z,19.98
2022-08-17T03:18:59.482Z,19.98
2022-08-17T03:21:27.546Z,19.97
2022-08-17T03:23:55.622Z,19.95
2022-08-17T03:26:23.603Z,19.94
2022-08-17T03:28:57.813Z,19.90
2022-08-17T03:31:25.870Z,19.90
2022-08-17T03:33:54.054Z,19.89
2022-08-17T03:36:22.379Z,19.90
2022-08-17T03:38:50.401Z,19.92
2022-08-17T03:41:20.316Z,19.92
2022-08-17T03:43:48.271Z,19.92
2022-08-17T03:46:35.682Z,19.92
2022-08-17T03:49:27.172Z,19.93
2022-08-17T03:52:15.255Z,19.92
2022-08-17T03:55:04.023Z,19.94
2022-08-17T03:57:32.579Z,19.99
2022-08-17T04:00:00.775Z,20.05
2022-08-17T04:02:32.537Z,20.10
2022-08-17T04:05:01.315Z,20.15
2022-08-17T04:07:31.646Z,20.19
2022-08-17T04:10:00.390Z,20.21
2022-08-17T04:12:42.853Z,20.23
2022-08-17T04:18:07.351Z,20.27
2022-08-17T04:20:35.495Z,20.28
2022-08-17T04:23:11.624Z,20.31
2022-08-17T04:25:43.148Z,20.34
2022-08-17T04:28:15.556Z,20.39
2022-08-17T04:35:47.169Z,20.52
2022-08-17T04:38:27.355Z,20.61
2022-08-17T04:41:15.298Z,20.67
2022-08-17T04:43:45.564Z,20.74
2022-08-17T04:46:19.629Z,20.80
2022-08-17T04:48:50.990Z,20.85
2022-08-17T04:51:40.356Z,20.90
2022-08-17T04:54:21.158Z,20.97
2022-08-17T04:56:49.326Z,21.00
2022-08-17T04:59:21.430Z,21.03
2022-08-17T05:01:51.560Z,21.10
2022-08-17T05:04:34.474Z,21.18
2022-08-17T05:07:04.814Z,21.30
2022-08-17T05:09:32.955Z,21.39
2022-08-17T05:12:02.561Z,21.50
2022-08-17T05:14:32.930Z,21.59
2022-08-17T05:17:07.198Z,21.70
2022-08-17T05:19:37.595Z,21.73
2022-08-17T05:22:06.375Z,21.75
2022-08-17T05:24:42.756Z,21.76
2022-08-17T05:27:23.510Z,21.75
2022-08-17T05:29:52.371Z,21.72
2022-08-17T05:32:39.248Z,21.67
2022-08-17T05:35:11.137Z,21.67
2022-08-17T05:37:39.570Z,21.78
2022-08-17T05:40:08.310Z,22.29
2022-08-17T05:42:36.545Z,22.61
2022-08-17T05:45:05.751Z,22.68
2022-08-17T05:47:33.916Z,22.72
2022-08-17T05:50:02.706Z,23.19
2022-08-17T05:53:11.576Z,24.01
2022-08-17T05:55:59.331Z,24.71
2022-08-17T05:58:55.575Z,24.93
2022-08-17T06:01:35.357Z,25.57
2022-08-17T06:04:19.939Z,26.11
2022-08-17T06:07:05.459Z,26.57
2022-08-17T06:09:36.474Z,26.97
2022-08-17T06:12:59.747Z,27.29
2022-08-17T06:15:36.576Z,27.68
2022-08-17T06:18:08.425Z,27.77
2022-08-17T06:20:47.652Z,27.90
2022-08-17T06:23:41.266Z,28.05
2022-08-17T06:26:16.589Z,28.18
2022-08-17T06:28:51.888Z,28.32
2022-08-17T06:31:51.752Z,28.50
2022-08-17T06:34:21.091Z,28.60
2022-08-17T06:36:54.158Z,28.62
2022-08-17T06:39:46.134Z,28.58
2022-08-17T06:43:02.569Z,28.37
2022-08-17T06:45:34.616Z,27.73
2022-08-17T06:48:13.051Z,27.14
2022-08-17T06:50:55.416Z,26.57
2022-08-17T06:53:41.252Z,26.22
2022-08-17T06:56:11.741Z,25.87
2022-08-17T06:58:43.566Z,25.63
2022-08-17T07:01:19.492Z,25.59
2022-08-17T07:04:06.734Z,25.63
2022-08-17T07:06:50.899Z,25.73
2022-08-17T07:09:38.237Z,25.82
2022-08-17T07:12:16.128Z,25.86
2022-08-17T07:14:54.612Z,26.04
2022-08-17T07:17:46.636Z,26.36
2022-08-17T07:20:18.129Z,26.61
2022-08-17T07:23:04.500Z,26.66
2022-08-17T07:25:33.316Z,26.81
2022-08-17T07:28:07.065Z,27.21
2022-08-17T07:30:49.493Z,27.62
2022-08-17T07:33:33.301Z,28.21
2022-08-17T07:36:01.966Z,28.96
2022-08-17T07:38:35.612Z,29.56
2022-08-17T07:41:07.572Z,30.02
2022-08-17T07:43:41.581Z,30.18
2022-08-17T07:46:53.871Z,30.39
2022-08-17T07:49:32.536Z,30.51
2022-08-17T07:52:48.128Z,30.40
2022-08-17T07:54:58.845Z,30.53
2022-08-17T07:57:35.819Z,30.82
2022-08-17T08:00:16.868Z,31.04
2022-08-17T08:02:58.830Z,31.24
2022-08-17T08:05:49.309Z,31.46
2022-08-17T08:08:26.981Z,31.78
2022-08-17T08:11:02.227Z,31.94
2022-08-17T08:13:32.507Z,32.11
2022-08-17T08:16:21.186Z,32.36
2022-08-17T08:18:55.302Z,32.70
2022-08-17T08:21:31.175Z,32.99
2022-08-17T08:24:19.746Z,32.89
2022-08-17T08:27:10.703Z,32.81
2022-08-17T08:30:06.786Z,33.02
2022-08-17T08:32:57.902Z,33.39
2022-08-17T08:35:31.642Z,33.82
2022-08-17T08:38:20.346Z,34.21
2022-08-17T08:41:19.458Z,34.32
2022-08-17T08:44:01.000Z,34.34
2022-08-17T08:46:50.817Z,33.82
2022-08-17T08:49:45.072Z,33.70
2022-08-17T08:52:34.329Z,33.22
2022-08-17T08:55:34.716Z,32.90
2022-08-17T08:58:08.630Z,33.14
2022-08-17T09:00:58.747Z,33.49
2022-08-17T09:03:51.664Z,33.64
2022-08-17T09:06:58.170Z,33.39
2022-08-17T09:09:40.841Z,33.22
2022-08-17T09:12:25.691Z,33.72
2022-08-17T09:15:17.908Z,34.50
2022-08-17T09:19:01.131Z,35.37
2022-08-17T09:20:55.966Z,35.83
2022-08-17T09:23:49.820Z,35.83
2022-08-17T09:26:25.596Z,36.21
2022-08-17T09:29:01.831Z,36.43
2022-08-17T09:31:47.080Z,36.97
2022-08-17T09:34:29.555Z,37.58
2022-08-17T09:37:20.799Z,37.86
2022-08-17T09:39:48.745Z,37.43
2022-08-17T09:42:50.042Z,36.78
2022-08-17T09:45:41.083Z,36.22
2022-08-17T09:48:12.948Z,35.74
2022-08-17T09:51:04.882Z,35.47
2022-08-17T09:53:38.788Z,35.57
2022-08-17T09:56:28.527Z,36.14
2022-08-17T09:59:08.786Z,36.62
2022-08-17T10:02:05.011Z,36.85
2022-08-17T10:04:51.826Z,37.47
2022-08-17T10:07:47.758Z,37.18
2022-08-17T10:10:30.067Z,36.37
2022-08-17T10:13:26.149Z,35.61
2022-08-17T10:16:02.129Z,35.08
2022-08-17T10:18:44.915Z,34.83
2022-08-17T10:21:35.685Z,34.41
2022-08-17T10:24:28.494Z,33.89
2022-08-17T10:27:00.636Z,33.58
2022-08-17T10:29:49.169Z,33.40
2022-08-17T10:32:32.519Z,33.18
2022-08-17T10:35:07.270Z,33.38
2022-08-17T10:37:54.207Z,33.76
2022-08-17T10:40:48.435Z,33.71
2022-08-17T10:43:57.829Z,33.91
2022-08-17T10:46:52.391Z,34.98
2022-08-17T10:49:23.149Z,36.16
2022-08-17T10:52:12.711Z,36.99
2022-08-17T10:54:47.499Z,37.69
2022-08-17T10:57:31.945Z,37.97
2022-08-17T11:00:02.362Z,38.27
2022-08-17T11:02:51.358Z,38.02
2022-08-17T11:05:29.149Z,37.81
2022-08-17T11:08:46.374Z,37.90
2022-08-17T11:11:40.027Z,37.92
2022-08-17T11:14:17.511Z,38.83
2022-08-17T11:17:11.651Z,39.27
2022-08-17T11:19:39.711Z,39.01
2022-08-17T11:22:32.762Z,38.69
2022-08-17T11:25:31.158Z,38.90
2022-08-17T11:28:26.076Z,39.32
2022-08-17T11:31:10.226Z,40.35
2022-08-17T11:33:45.215Z,41.14
2022-08-17T11:36:29.662Z,41.82
2022-08-17T11:39:15.306Z,42.35
2022-08-17T11:42:20.909Z,42.61
2022-08-17T11:45:08.748Z,43.17
2022-08-17T11:48:27.735Z,43.38
2022-08-17T11:51:46.156Z,42.77
2022-08-17T11:54:32.112Z,42.36
2022-08-17T11:57:25.715Z,41.49
2022-08-17T12:00:00.664Z,40.09
2022-08-17T12:02:31.514Z,38.93
2022-08-17T12:05:14.867Z,38.06
2022-08-17T12:07:52.722Z,37.20
2022-08-17T12:10:32.018Z,36.54
2022-08-17T12:13:07.075Z,36.11
2022-08-17T12:15:40.979Z,35.95
2022-08-17T12:18:18.342Z,35.81
2022-08-17T12:20:56.561Z,35.55
2022-08-17T12:23:29.499Z,35.53
2022-08-17T12:25:59.884Z,35.61
2022-08-17T12:28:34.335Z,35.74
2022-08-17T12:31:31.798Z,36.20
2022-08-17T12:34:00.626Z,36.48
2022-08-17T12:36:29.328Z,36.60
2022-08-17T12:39:14.181Z,36.46
2022-08-17T12:41:52.721Z,35.96
2022-08-17T12:44:22.325Z,35.52
2022-08-17T12:47:21.886Z,35.12
2022-08-17T12:49:52.940Z,34.94
2022-08-17T12:52:33.018Z,35.62
2022-08-17T12:55:05.768Z,36.81
2022-08-17T12:57:41.523Z,37.89
2022-08-17T13:00:17.860Z,38.86
2022-08-17T13:02:58.346Z,39.70
2022-08-17T13:05:29.267Z,40.42
2022-08-17T13:07:59.678Z,41.05
2022-08-17T13:10:33.077Z,41.70
2022-08-17T13:13:06.125Z,42.25
2022-08-17T13:15:44.902Z,42.69
2022-08-17T13:18:48.942Z,43.02
2022-08-17T13:21:30.678Z,43.08
2022-08-17T13:24:10.776Z,43.17
2022-08-17T13:26:44.291Z,43.37
2022-08-17T13:29:37.288Z,43.03
2022-08-17T13:32:13.042Z,42.73
2022-08-17T13:35:12.622Z,42.56
2022-08-17T13:37:35.821Z,42.20
2022-08-17T13:40:09.757Z,41.01
2022-08-17T13:42:53.004Z,39.79
2022-08-17T13:45:40.275Z,39.22
2022-08-17T13:48:13.840Z,38.04
2022-08-17T13:50:43.767Z,36.78
2022-08-17T13:53:50.742Z,35.79
2022-08-17T13:56:45.176Z,34.99
2022-08-17T13:59:36.022Z,34.83
2022-08-17T14:02:18.768Z,35.45
2022-08-17T14:04:48.180Z,35.57
2022-08-17T14:07:18.460Z,35.39
2022-08-17T14:09:54.703Z,35.46
2022-08-17T14:12:27.488Z,36.17
2022-08-17T14:14:56.691Z,37.22
2022-08-17T14:17:29.176Z,38.21
2022-08-17T14:19:58.628Z,38.78
2022-08-17T14:22:35.145Z,38.68
2022-08-17T14:25:04.790Z,38.05
2022-08-17T14:27:52.373Z,38.05
2022-08-17T14:30:25.138Z,38.86
2022-08-17T14:32:54.331Z,39.78
2022-08-17T14:35:24.048Z,40.70
2022-08-17T14:37:53.008Z,41.61
2022-08-17T14:40:25.086Z,42.47
2022-08-17T14:42:55.441Z,43.15
2022-08-17T14:45:30.154Z,43.53
2022-08-17T14:48:07.941Z,43.68
2022-08-17T14:50:38.917Z,43.69
2022-08-17T14:53:10.123Z,43.95
2022-08-17T14:55:40.741Z,44.39
2022-08-17T14:58:09.501Z,44.81
2022-08-17T15:00:39.696Z,45.02
2022-08-17T15:03:07.788Z,45.03
2022-08-17T15:05:38.042Z,44.63
2022-08-17T15:08:07.327Z,43.94
2022-08-17T15:10:36.484Z,43.37
2022-08-17T15:13:23.521Z,42.93
2022-08-17T15:15:52.133Z,42.84
2022-08-17T15:18:20.457Z,42.98
2022-08-17T15:20:50.304Z,43.19
2022-08-17T15:23:22.035Z,43.27
2022-08-17T15:25:52.712Z,43.34
2022-08-17T15:28:25.373Z,42.86
2022-08-17T15:30:54.177Z,42.36
2022-08-17T15:33:29.663Z,42.27
2022-08-17T15:36:03.336Z,41.65
2022-08-17T15:38:34.360Z,40.12
2022-08-17T15:41:03.006Z,38.75
2022-08-17T15:43:33.005Z,37.57
2022-08-17T15:46:12.748Z,36.50
2022-08-17T15:48:42.701Z,35.41
2022-08-17T15:51:21.345Z,34.63
2022-08-17T15:53:58.771Z,34.73
2022-08-17T15:56:29.400Z,35.19
2022-08-17T15:58:58.695Z,35.68
2022-08-17T16:02:15.425Z,36.06
2022-08-17T16:04:30.528Z,36.51
2022-08-17T16:07:00.380Z,36.16
2022-08-17T16:09:29.076Z,35.18
2022-08-17T16:11:57.599Z,34.27
2022-08-17T16:14:32.516Z,34.00
2022-08-17T16:17:05.676Z,34.08
2022-08-17T16:19:54.264Z,34.49
2022-08-17T16:22:33.361Z,34.53
2022-08-17T16:25:06.617Z,34.25
2022-08-17T16:27:35.099Z,33.89
2022-08-17T16:30:06.300Z,33.49
2022-08-17T16:32:34.663Z,32.98
2022-08-17T16:35:06.169Z,32.50
2022-08-17T16:37:35.064Z,32.13
2022-08-17T16:40:07.998Z,31.76
2022-08-17T16:42:38.676Z,31.37
2022-08-17T16:45:17.336Z,31.01
2022-08-17T16:47:46.477Z,30.74
2022-08-17T16:50:18.045Z,30.49
2022-08-17T16:52:50.393Z,30.27
2022-08-17T16:55:21.493Z,30.07
2022-08-17T16:57:50.337Z,29.89
2022-08-17T17:00:19.587Z,29.74
2022-08-17T17:02:49.882Z,29.53
2022-08-17T17:05:43.676Z,29.26
2022-08-17T17:08:25.756Z,29.01
2022-08-17T17:10:56.725Z,28.89
2022-08-17T17:13:44.309Z,28.73
2022-08-17T17:16:12.380Z,28.51
2022-08-17T17:19:03.406Z,28.41
2022-08-17T17:21:42.804Z,28.35
2022-08-17T17:24:17.086Z,28.29
2022-08-17T17:27:11.890Z,28.20
2022-08-17T17:29:56.096Z,28.13
2022-08-17T17:32:43.051Z,28.02
2022-08-17T17:35:47.922Z,27.89
2022-08-17T17:38:22.271Z,27.74
2022-08-17T17:40:55.134Z,27.65
2022-08-17T17:43:39.751Z,27.53
2022-08-17T17:46:27.700Z,27.41
2022-08-17T17:48:58.181Z,27.29
2022-08-17T17:52:10.213Z,27.19
2022-08-17T17:55:03.619Z,27.01
2022-08-17T17:57:47.662Z,26.93
2022-08-17T18:00:23.669Z,26.87
2022-08-17T18:03:01.009Z,26.76
2022-08-17T18:06:01.164Z,26.67
2022-08-17T18:08:53.069Z,26.60
2022-08-17T18:11:25.113Z,26.52
2022-08-17T18:14:20.796Z,26.49
2022-08-17T18:16:55.503Z,26.44
2022-08-17T18:19:26.136Z,26.41
2022-08-17T18:22:21.479Z,26.33
2022-08-17T18:24:56.247Z,26.25
2022-08-17T18:27:24.405Z,26.18
2022-08-17T18:29:58.116Z,26.11
2022-08-17T18:32:37.803Z,26.05
2022-08-17T18:35:11.866Z,25.96
2022-08-17T18:37:54.123Z,25.85
2022-08-17T18:40:30.851Z,25.76
2022-08-17T18:43:08.849Z,25.66
2022-08-17T18:45:48.492Z,25.53
2022-08-17T18:48:38.517Z,25.42
2022-08-17T18:51:48.947Z,25.31
2022-08-17T18:54:25.817Z,25.18
2022-08-17T18:56:57.363Z,25.09
2022-08-17T18:59:50.323Z,24.97
2022-08-17T19:02:38.671Z,24.83
2022-08-17T19:05:30.093Z,24.73
2022-08-17T19:08:29.785Z,24.65
2022-08-17T19:11:09.658Z,24.56
2022-08-17T19:13:44.272Z,24.47
2022-08-17T19:16:46.547Z,24.38
2022-08-17T19:19:45.419Z,24.27
2022-08-17T19:22:40.738Z,24.18
2022-08-17T19:25:18.158Z,24.14
2022-08-17T19:27:58.146Z,24.10
2022-08-17T19:30:26.992Z,24.03
2022-08-17T19:33:01.802Z,23.95
2022-08-17T19:36:07.758Z,23.90
2022-08-17T19:39:06.175Z,23.82
2022-08-17T19:42:05.132Z,23.77
2022-08-17T19:45:12.628Z,23.72
2022-08-17T19:47:55.206Z,23.62
2022-08-17T19:50:43.178Z,23.57
2022-08-17T19:54:07.131Z,23.53
2022-08-17T19:56:44.225Z,23.47
2022-08-17T19:59:23.507Z,23.47
2022-08-17T20:01:54.789Z,23.48
2022-08-17T20:04:32.389Z,23.50
2022-08-17T20:07:06.908Z,23.49
2022-08-17T20:09:39.338Z,23.44
2022-08-17T20:12:26.916Z,23.42
2022-08-17T20:15:04.008Z,23.39
2022-08-17T20:17:40.766Z,23.35
2022-08-17T20:20:43.722Z,23.28
2022-08-17T20:23:23.725Z,23.19
2022-08-17T20:26:05.922Z,23.12
2022-08-17T20:28:39.326Z,23.07
2022-08-17T20:31:42.038Z,23.04
2022-08-17T20:34:36.869Z,22.99
2022-08-17T20:37:29.135Z,22.94
2022-08-17T20:39:57.462Z,22.91
2022-08-17T20:42:26.299Z,22.90
2022-08-17T20:45:21.757Z,22.89
2022-08-17T20:50:52.946Z,22.86
2022-08-17T20:53:56.172Z,22.79
2022-08-17T20:56:48.396Z,22.70
2022-08-17T20:59:30.674Z,22.63
2022-08-17T21:02:17.698Z,22.57
2022-08-17T21:04:50.195Z,22.50
2022-08-17T21:07:29.585Z,22.42
2022-08-17T21:10:16.145Z,22.39
2022-08-17T21:12:50.056Z,22.39
2022-08-17T21:15:43.744Z,22.42
2022-08-17T21:18:39.029Z,22.49
2022-08-17T21:21:33.001Z,22.54
2022-08-17T21:24:26.070Z,22.55
2022-08-17T21:26:55.635Z,22.51
2022-08-17T21:29:31.104Z,22.47
2022-08-17T21:32:05.401Z,22.44
2022-08-17T21:34:40.561Z,22.47
2022-08-17T21:37:23.707Z,22.48
2022-08-17T21:39:56.521Z,22.50
2022-08-17T21:42:32.190Z,22.54
2022-08-17T21:45:10.946Z,22.55
2022-08-17T21:47:45.375Z,22.52
2022-08-17T21:50:19.535Z,22.47
2022-08-17T21:52:50.150Z,22.46
2022-08-17T21:55:24.725Z,22.47
2022-08-17T21:58:12.184Z,22.46
2022-08-17T22:00:44.845Z,22.45
2022-08-17T22:03:26.476Z,22.47
2022-08-17T22:05:54.589Z,22.47
2022-08-17T22:08:25.997Z,22.44
2022-08-17T22:11:01.705Z,22.41
2022-08-17T22:13:30.139Z,22.38
2022-08-17T22:16:15.171Z,22.33
2022-08-17T22:18:53.872Z,22.27
2022-08-17T22:21:22.612Z,22.19
2022-08-17T22:24:06.195Z,22.10
2022-08-17T22:27:02.733Z,22.05
2022-08-17T22:30:00.493Z,22.03
2022-08-17T22:32:37.778Z,21.95
2022-08-17T22:35:26.941Z,21.85
2022-08-17T22:37:57.459Z,21.78
2022-08-17T22:40:30.768Z,21.75
2022-08-17T22:43:03.686Z,21.71
2022-08-17T22:45:33.766Z,21.66
2022-08-17T22:48:02.383Z,21.64
2022-08-17T22:50:33.388Z,21.58
2022-08-17T22:53:30.849Z,21.50
2022-08-17T22:56:17.988Z,21.41
2022-08-17T22:59:12.465Z,21.40
2022-08-17T23:01:42.607Z,21.38
2022-08-17T23:04:29.795Z,21.37
2022-08-17T23:06:58.081Z,21.34
2022-08-17T23:09:26.245Z,21.29
2022-08-17T23:11:59.023Z,21.24
2022-08-17T23:14:32.485Z,21.20
2022-08-17T23:17:02.007Z,21.14
2022-08-17T23:19:33.061Z,21.09
2022-08-17T23:22:04.586Z,21.04
2022-08-17T23:24:39.607Z,21.00
2022-08-17T23:27:08.443Z,20.95
2022-08-17T23:29:41.840Z,20.94
2022-08-17T23:32:14.947Z,20.91
2022-08-17T23:34:45.119Z,20.86
2022-08-17T23:37:13.265Z,20.79
2022-08-17T23:39:45.256Z,20.75
2022-08-17T23:42:24.827Z,20.71
2022-08-17T23:44:53.192Z,20.68
2022-08-17T23:47:21.647Z,20.65
2022-08-17T23:49:49.753Z,20.59
2022-08-17T23:52:23.042Z,20.53
2022-08-17T23:54:51.210Z,20.49
2022-08-17T23:57:33.857Z,20.46
